< < Back
Terminal Aerodrome Forecast


Current Version              Previous Versions:   1  2  3  4  5  6  7  8  9  

Terminal Aerodrome Forecast

788
FTUS42 KFFC 241100
TAFPDK
TAF
KPDK 241120Z 2412/2512 08008KT P6SM SKC
     FM241500 12007KT P6SM SCT060
     FM242300 16006KT P6SM BKN060
     FM251100 20007KT P6SM BKN050=



Latest METAR

432
SAUS70 KWBC 241200 RRH
MTRPDK
METAR KPDK 241153Z VRB03KT 10SM CLR 10/04 A3004 RMK AO2 SLP169 T01000039
10100 20050 51022


USA.gov is the U.S. government's official web portal to all federal, state and local government web resources and services.